sensor_id;sensor_type;location;lat;lon;timestamp;pressure;altitude;pressure_sealevel;temperature;humidity
23363;BME280;11853;48.080;11.960;2022-08-20T00:00:31;94706.22;;;19.19;100.00
23363;BME280;11853;48.080;11.960;2022-08-20T00:03:05;94706.00;;;19.13;100.00
23363;BME280;11853;48.080;11.960;2022-08-20T00:05:32;94711.19;;;19.15;100.00
23363;BME280;11853;48.080;11.960;2022-08-20T00:08:00;94707.06;;;19.06;100.00
23363;BME280;11853;48.080;11.960;2022-08-20T00:10:27;94702.31;;;19.15;100.00
23363;BME280;11853;48.080;11.960;2022-08-20T00:12:57;94709.53;;;19.07;100.00
23363;BME280;11853;48.080;11.960;2022-08-20T00:15:28;94706.66;;;19.02;100.00
23363;BME280;11853;48.080;11.960;2022-08-20T00:17:54;94712.66;;;19.04;100.00
23363;BME280;11853;48.080;11.960;2022-08-20T00:20:22;94717.19;;;19.10;100.00
23363;BME280;11853;48.080;11.960;2022-08-20T00:22:49;94718.63;;;19.13;100.00
23363;BME280;11853;48.080;11.960;2022-08-20T00:25:15;94719.84;;;19.17;100.00
23363;BME280;11853;48.080;11.960;2022-08-20T00:27:41;94718.44;;;19.15;100.00
23363;BME280;11853;48.080;11.960;2022-08-20T00:30:10;94718.44;;;19.15;100.00
23363;BME280;11853;48.080;11.960;2022-08-20T00:32:44;94718.63;;;19.13;100.00
23363;BME280;11853;48.080;11.960;2022-08-20T00:35:11;94723.19;;;19.12;100.00
23363;BME280;11853;48.080;11.960;2022-08-20T00:37:37;94715.34;;;19.18;100.00
23363;BME280;11853;48.080;11.960;2022-08-20T00:40:04;94708.69;;;19.13;100.00
23363;BME280;11853;48.080;11.960;2022-08-20T00:42:40;94721.13;;;19.15;100.00
23363;BME280;11853;48.080;11.960;2022-08-20T00:45:06;94725.06;;;19.12;100.00
23363;BME280;11853;48.080;11.960;2022-08-20T00:47:33;94714.53;;;19.04;100.00
23363;BME280;11853;48.080;11.960;2022-08-20T00:49:59;94719.25;;;19.08;100.00
23363;BME280;11853;48.080;11.960;2022-08-20T00:52:25;94721.75;;;19.03;100.00
23363;BME280;11853;48.080;11.960;2022-08-20T00:54:54;94728.16;;;19.02;100.00
23363;BME280;11853;48.080;11.960;2022-08-20T00:57:42;94728.16;;;19.02;100.00
23363;BME280;11853;48.080;11.960;2022-08-20T01:00:12;94719.69;;;18.99;100.00
23363;BME280;11853;48.080;11.960;2022-08-20T01:02:39;94715.94;;;19.00;100.00
23363;BME280;11853;48.080;11.960;2022-08-20T01:05:08;94712.22;;;18.94;100.00
23363;BME280;11853;48.080;11.960;2022-08-20T01:07:35;94721.56;;;18.92;100.00
23363;BME280;11853;48.080;11.960;2022-08-20T01:10:13;94721.34;;;18.86;100.00
23363;BME280;11853;48.080;11.960;2022-08-20T01:12:43;94730.25;;;18.87;100.00
23363;BME280;11853;48.080;11.960;2022-08-20T01:15:13;94748.84;;;18.88;100.00
23363;BME280;11853;48.080;11.960;2022-08-20T01:17:45;94722.38;;;18.92;100.00
23363;BME280;11853;48.080;11.960;2022-08-20T01:20:20;94720.28;;;18.94;100.00
23363;BME280;11853;48.080;11.960;2022-08-20T01:28:25;94728.78;;;18.91;100.00
23363;BME280;11853;48.080;11.960;2022-08-20T01:30:53;94729.81;;;18.90;100.00
23363;BME280;11853;48.080;11.960;2022-08-20T01:33:20;94718.84;;;18.85;100.00
23363;BME280;11853;48.080;11.960;2022-08-20T01:35:46;94720.72;;;18.84;100.00
23363;BME280;11853;48.080;11.960;2022-08-20T01:38:13;94727.75;;;18.85;100.00
23363;BME280;11853;48.080;11.960;2022-08-20T01:43:32;94721.97;;;18.82;100.00
23363;BME280;11853;48.080;11.960;2022-08-20T01:45:58;94721.97;;;18.82;100.00
23363;BME280;11853;48.080;11.960;2022-08-20T01:48:23;94722.78;;;18.76;100.00
23363;BME280;11853;48.080;11.960;2022-08-20T01:50:59;94713.28;;;18.80;100.00
23363;BME280;11853;48.080;11.960;2022-08-20T01:53:34;94708.09;;;18.85;100.00
23363;BME280;11853;48.080;11.960;2022-08-20T01:56:04;94711.84;;;18.84;100.00
23363;BME280;11853;48.080;11.960;2022-08-20T01:58:33;94716.59;;;18.82;100.00
23363;BME280;11853;48.080;11.960;2022-08-20T02:00:59;94725.88;;;18.79;100.00
23363;BME280;11853;48.080;11.960;2022-08-20T02:03:25;94729.41;;;18.80;100.00
23363;BME280;11853;48.080;11.960;2022-08-20T02:05:51;94725.47;;;18.76;100.00
23363;BME280;11853;48.080;11.960;2022-08-20T02:08:21;94736.03;;;18.77;100.00
23363;BME280;11853;48.080;11.960;2022-08-20T02:10:48;94735.19;;;18.77;100.00
23363;BME280;11853;48.080;11.960;2022-08-20T02:13:13;94741.19;;;18.79;100.00
23363;BME280;11853;48.080;11.960;2022-08-20T02:15:39;94729.59;;;18.72;100.00
23363;BME280;11853;48.080;11.960;2022-08-20T02:18:07;94725.22;;;18.71;100.00
23363;BME280;11853;48.080;11.960;2022-08-20T02:20:33;94728.16;;;18.76;100.00
23363;BME280;11853;48.080;11.960;2022-08-20T02:22:59;94734.34;;;18.69;100.00
23363;BME280;11853;48.080;11.960;2022-08-20T02:25:29;94732.28;;;18.72;100.00
23363;BME280;11853;48.080;11.960;2022-08-20T02:27:56;94724.84;;;18.74;100.00
23363;BME280;11853;48.080;11.960;2022-08-20T02:30:31;94731.03;;;18.74;100.00
23363;BME280;11853;48.080;11.960;2022-08-20T02:33:02;94732.69;;;18.68;100.00
23363;BME280;11853;48.080;11.960;2022-08-20T02:35:28;94723.59;;;18.69;100.00
23363;BME280;11853;48.080;11.960;2022-08-20T02:37:54;94732.28;;;18.72;100.00
23363;BME280;11853;48.080;11.960;2022-08-20T02:40:22;94731.03;;;18.74;100.00
23363;BME280;11853;48.080;11.960;2022-08-20T02:42:51;94749.44;;;18.71;100.00
23363;BME280;11853;48.080;11.960;2022-08-20T02:45:20;94739.09;;;18.61;100.00
23363;BME280;11853;48.080;11.960;2022-08-20T02:47:47;94737.81;;;18.57;100.00
23363;BME280;11853;48.080;11.960;2022-08-20T02:50:16;94736.81;;;18.64;100.00
23363;BME280;11853;48.080;11.960;2022-08-20T02:52:42;94731.84;;;18.61;100.00
23363;BME280;11853;48.080;11.960;2022-08-20T02:55:10;94731.66;;;18.63;100.00
23363;BME280;11853;48.080;11.960;2022-08-20T02:57:36;94736.41;;;18.67;100.00
23363;BME280;11853;48.080;11.960;2022-08-20T03:00:06;94731.84;;;18.61;100.00
23363;BME280;11853;48.080;11.960;2022-08-20T03:02:32;94740.13;;;18.66;100.00
23363;BME280;11853;48.080;11.960;2022-08-20T03:04:58;94739.28;;;18.59;100.00
23363;BME280;11853;48.080;11.960;2022-08-20T03:07:23;94745.50;;;18.66;100.00
23363;BME280;11853;48.080;11.960;2022-08-20T03:09:49;94740.53;;;18.63;100.00
23363;BME280;11853;48.080;11.960;2022-08-20T03:12:14;94740.31;;;18.52;100.00
23363;BME280;11853;48.080;11.960;2022-08-20T03:14:40;94743.00;;;18.58;100.00
23363;BME280;11853;48.080;11.960;2022-08-20T03:17:06;94745.06;;;18.56;100.00
23363;BME280;11853;48.080;11.960;2022-08-20T03:19:32;94740.94;;;18.60;100.00
23363;BME280;11853;48.080;11.960;2022-08-20T03:21:58;94745.06;;;18.56;100.00
23363;BME280;11853;48.080;11.960;2022-08-20T03:24:23;94735.38;;;18.49;100.00
23363;BME280;11853;48.080;11.960;2022-08-20T03:26:49;94745.28;;;18.55;100.00
23363;BME280;11853;48.080;11.960;2022-08-20T03:29:15;94743.41;;;18.55;100.00
23363;BME280;11853;48.080;11.960;2022-08-20T03:31:41;94749.84;;;18.61;100.00
23363;BME280;11853;48.080;11.960;2022-08-20T03:34:07;94733.72;;;18.61;100.00
23363;BME280;11853;48.080;11.960;2022-08-20T03:36:32;94749.22;;;18.59;100.00
23363;BME280;11853;48.080;11.960;2022-08-20T03:39:03;94745.06;;;18.50;100.00
23363;BME280;11853;48.080;11.960;2022-08-20T03:41:29;94744.44;;;18.41;100.00
23363;BME280;11853;48.080;11.960;2022-08-20T03:43:56;94748.75;;;18.42;100.00
23363;BME280;11853;48.080;11.960;2022-08-20T03:46:23;94751.91;;;18.52;100.00
23363;BME280;11853;48.080;11.960;2022-08-20T03:48:53;94756.63;;;18.50;100.00
23363;BME280;11853;48.080;11.960;2022-08-20T03:51:19;94760.38;;;18.56;100.00
23363;BME280;11853;48.080;11.960;2022-08-20T03:53:45;94756.63;;;18.50;100.00
23363;BME280;11853;48.080;11.960;2022-08-20T03:56:12;94759.97;;;18.52;100.00
23363;BME280;11853;48.080;11.960;2022-08-20T03:58:38;94763.66;;;18.44;100.00
23363;BME280;11853;48.080;11.960;2022-08-20T04:01:05;94757.69;;;18.49;100.00
23363;BME280;11853;48.080;11.960;2022-08-20T04:03:31;94760.19;;;18.57;100.00
23363;BME280;11853;48.080;11.960;2022-08-20T04:05:57;94759.75;;;18.60;100.00
23363;BME280;11853;48.080;11.960;2022-08-20T04:08:28;94758.31;;;18.58;100.00
23363;BME280;11853;48.080;11.960;2022-08-20T04:10:55;94764.28;;;18.53;100.00
23363;BME280;11853;48.080;11.960;2022-08-20T04:13:26;94768.22;;;18.51;100.00
23363;BME280;11853;48.080;11.960;2022-08-20T04:15:52;94766.56;;;18.50;100.00
23363;BME280;11853;48.080;11.960;2022-08-20T04:18:21;94776.50;;;18.56;100.00
23363;BME280;11853;48.080;11.960;2022-08-20T04:20:49;94766.38;;;18.58;100.00
23363;BME280;11853;48.080;11.960;2022-08-20T04:23:16;94771.13;;;18.56;100.00
23363;BME280;11853;48.080;11.960;2022-08-20T04:25:42;94773.63;;;18.57;100.00
23363;BME280;11853;48.080;11.960;2022-08-20T04:28:15;94768.66;;;18.61;100.00
23363;BME280;11853;48.080;11.960;2022-08-20T04:30:50;94762.63;;;18.59;100.00
23363;BME280;11853;48.080;11.960;2022-08-20T04:33:20;94772.34;;;18.60;100.00
23363;BME280;11853;48.080;11.960;2022-08-20T04:35:46;94771.53;;;18.59;100.00
23363;BME280;11853;48.080;11.960;2022-08-20T04:38:17;94776.31;;;18.64;100.00
23363;BME280;11853;48.080;11.960;2022-08-20T04:40:43;94775.47;;;18.63;100.00
23363;BME280;11853;48.080;11.960;2022-08-20T04:43:24;94776.91;;;18.59;100.00
23363;BME280;11853;48.080;11.960;2022-08-20T04:45:51;94776.50;;;18.62;100.00
23363;BME280;11853;48.080;11.960;2022-08-20T04:48:19;94785.19;;;18.64;100.00
23363;BME280;11853;48.080;11.960;2022-08-20T04:50:45;94782.72;;;18.63;100.00
23363;BME280;11853;48.080;11.960;2022-08-20T04:53:13;94782.72;;;18.69;100.00
23363;BME280;11853;48.080;11.960;2022-08-20T04:55:41;94782.09;;;18.67;100.00
23363;BME280;11853;48.080;11.960;2022-08-20T04:58:10;94786.22;;;18.63;100.00
23363;BME280;11853;48.080;11.960;2022-08-20T05:00:37;94786.22;;;18.63;100.00
23363;BME280;11853;48.080;11.960;2022-08-20T05:03:03;94786.41;;;18.62;100.00
23363;BME280;11853;48.080;11.960;2022-08-20T05:05:32;94796.75;;;18.65;100.00
23363;BME280;11853;48.080;11.960;2022-08-20T05:08:00;94800.50;;;18.64;100.00
23363;BME280;11853;48.080;11.960;2022-08-20T05:10:26;94791.59;;;18.63;100.00
23363;BME280;11853;48.080;11.960;2022-08-20T05:12:52;94801.13;;;18.66;100.00
23363;BME280;11853;48.080;11.960;2022-08-20T05:15:19;94801.94;;;18.66;100.00
23363;BME280;11853;48.080;11.960;2022-08-20T05:17:45;94804.63;;;18.66;100.00
23363;BME280;11853;48.080;11.960;2022-08-20T05:20:15;94809.00;;;18.74;100.00
23363;BME280;11853;48.080;11.960;2022-08-20T05:22:42;94803.41;;;18.69;100.00
23363;BME280;11853;48.080;11.960;2022-08-20T05:25:09;94819.94;;;18.73;100.00
23363;BME280;11853;48.080;11.960;2022-08-20T05:27:35;94822.81;;;18.71;100.00
23363;BME280;11853;48.080;11.960;2022-08-20T05:30:06;94813.75;;;18.72;100.00
23363;BME280;11853;48.080;11.960;2022-08-20T05:32:32;94811.88;;;18.73;100.00
23363;BME280;11853;48.080;11.960;2022-08-20T05:35:00;94816.25;;;18.74;100.00
23363;BME280;11853;48.080;11.960;2022-08-20T05:37:27;94819.94;;;18.73;100.00
23363;BME280;11853;48.080;11.960;2022-08-20T05:39:54;94825.75;;;18.76;100.00
23363;BME280;11853;48.080;11.960;2022-08-20T05:42:20;94827.84;;;18.81;100.00
23363;BME280;11853;48.080;11.960;2022-08-20T05:44:46;94826.81;;;18.82;100.00
23363;BME280;11853;48.080;11.960;2022-08-20T05:47:13;94825.56;;;18.78;100.00
23363;BME280;11853;48.080;11.960;2022-08-20T05:49:39;94826.16;;;18.80;100.00
23363;BME280;11853;48.080;11.960;2022-08-20T05:52:05;94821.84;;;18.79;100.00
23363;BME280;11853;48.080;11.960;2022-08-20T05:54:31;94826.16;;;18.80;100.00
23363;BME280;11853;48.080;11.960;2022-08-20T05:56:57;94825.78;;;18.83;100.00
23363;BME280;11853;48.080;11.960;2022-08-20T05:59:25;94829.09;;;18.85;100.00
23363;BME280;11853;48.080;11.960;2022-08-20T06:01:51;94824.34;;;18.94;100.00
23363;BME280;11853;48.080;11.960;2022-08-20T06:04:17;94825.78;;;18.96;100.00
23363;BME280;11853;48.080;11.960;2022-08-20T06:06:52;94827.84;;;18.94;100.00
23363;BME280;11853;48.080;11.960;2022-08-20T06:09:20;94835.91;;;18.94;100.00
23363;BME280;11853;48.080;11.960;2022-08-20T06:11:46;94839.00;;;18.91;100.00
23363;BME280;11853;48.080;11.960;2022-08-20T06:14:12;94843.97;;;18.94;100.00
23363;BME280;11853;48.080;11.960;2022-08-20T06:16:40;94843.97;;;18.94;100.00
23363;BME280;11853;48.080;11.960;2022-08-20T06:19:06;94846.69;;;19.01;100.00
23363;BME280;11853;48.080;11.960;2022-08-20T06:21:32;94849.59;;;18.99;100.00
23363;BME280;11853;48.080;11.960;2022-08-20T06:23:58;94856.81;;;18.92;100.00
23363;BME280;11853;48.080;11.960;2022-08-20T06:26:24;94860.13;;;18.94;100.00
23363;BME280;11853;48.080;11.960;2022-08-20T06:28:50;94855.59;;;18.95;100.00
23363;BME280;11853;48.080;11.960;2022-08-20T06:31:15;94855.78;;;18.93;100.00
23363;BME280;11853;48.080;11.960;2022-08-20T06:33:41;94859.50;;;18.92;100.00
23363;BME280;11853;48.080;11.960;2022-08-20T06:36:08;94852.28;;;18.93;100.00
23363;BME280;11853;48.080;11.960;2022-08-20T06:38:34;94854.31;;;18.90;100.00
23363;BME280;11853;48.080;11.960;2022-08-20T06:41:00;94856.81;;;18.92;100.00
23363;BME280;11853;48.080;11.960;2022-08-20T06:43:27;94861.16;;;18.93;100.00
23363;BME280;11853;48.080;11.960;2022-08-20T06:45:53;94860.53;;;18.91;100.00
23363;BME280;11853;48.080;11.960;2022-08-20T06:48:23;94861.75;;;18.88;100.00
23363;BME280;11853;48.080;11.960;2022-08-20T06:50:49;94857.22;;;18.89;100.00
23363;BME280;11853;48.080;11.960;2022-08-20T06:53:19;94864.84;;;18.85;100.00
23363;BME280;11853;48.080;11.960;2022-08-20T06:55:49;94858.88;;;18.90;100.00
23363;BME280;11853;48.080;11.960;2022-08-20T06:58:16;94857.22;;;18.89;100.00
23363;BME280;11853;48.080;11.960;2022-08-20T07:00:43;94865.31;;;18.89;100.00
23363;BME280;11853;48.080;11.960;2022-08-20T07:03:09;94870.28;;;18.92;100.00
23363;BME280;11853;48.080;11.960;2022-08-20T07:05:39;94871.28;;;18.91;100.00
23363;BME280;11853;48.080;11.960;2022-08-20T07:08:13;94865.91;;;18.91;100.00
23363;BME280;11853;48.080;11.960;2022-08-20T07:10:41;94863.44;;;18.89;100.00
23363;BME280;11853;48.080;11.960;2022-08-20T07:13:09;94862.63;;;18.89;100.00
23363;BME280;11853;48.080;11.960;2022-08-20T07:15:35;94873.97;;;18.91;100.00
23363;BME280;11853;48.080;11.960;2022-08-20T07:18:04;94872.13;;;18.92;100.00
23363;BME280;11853;48.080;11.960;2022-08-20T07:20:32;94877.50;;;18.92;100.00
23363;BME280;11853;48.080;11.960;2022-08-20T07:22:59;94869.63;;;18.90;100.00
23363;BME280;11853;48.080;11.960;2022-08-20T07:25:25;94872.31;;;18.90;100.00
23363;BME280;11853;48.080;11.960;2022-08-20T07:27:52;94879.16;;;18.93;100.00
23363;BME280;11853;48.080;11.960;2022-08-20T07:30:21;94886.41;;;18.92;100.00
23363;BME280;11853;48.080;11.960;2022-08-20T07:33:06;94892.59;;;18.93;100.00
23363;BME280;11853;48.080;11.960;2022-08-20T07:35:32;94900.25;;;18.89;100.00
23363;BME280;11853;48.080;11.960;2022-08-20T07:37:58;94893.00;;;18.89;100.00
23363;BME280;11853;48.080;11.960;2022-08-20T07:40:27;94898.38;;;18.89;100.00
23363;BME280;11853;48.080;11.960;2022-08-20T07:42:55;94892.19;;;18.89;100.00
23363;BME280;11853;48.080;11.960;2022-08-20T07:45:21;94898.81;;;18.93;100.00
23363;BME280;11853;48.080;11.960;2022-08-20T07:47:48;94897.34;;;18.90;100.00
23363;BME280;11853;48.080;11.960;2022-08-20T07:50:16;94901.72;;;18.92;100.00
23363;BME280;11853;48.080;11.960;2022-08-20T07:52:44;94906.69;;;18.95;100.00
23363;BME280;11853;48.080;11.960;2022-08-20T07:55:13;94910.59;;;18.92;100.00
23363;BME280;11853;48.080;11.960;2022-08-20T07:57:42;94913.91;;;18.94;100.00
23363;BME280;11853;48.080;11.960;2022-08-20T08:00:10;94911.22;;;18.94;100.00
23363;BME280;11853;48.080;11.960;2022-08-20T08:02:36;94913.91;;;18.94;100.00
23363;BME280;11853;48.080;11.960;2022-08-20T08:05:05;94905.81;;;18.94;100.00
23363;BME280;11853;48.080;11.960;2022-08-20T08:07:32;94905.81;;;18.94;100.00
23363;BME280;11853;48.080;11.960;2022-08-20T08:10:00;94908.50;;;18.94;100.00
23363;BME280;11853;48.080;11.960;2022-08-20T08:12:32;94904.59;;;18.90;100.00
23363;BME280;11853;48.080;11.960;2022-08-20T08:15:00;94908.94;;;18.91;100.00
23363;BME280;11853;48.080;11.960;2022-08-20T08:17:27;94911.63;;;18.91;100.00
23363;BME280;11853;48.080;11.960;2022-08-20T08:19:55;94915.97;;;18.92;100.00
23363;BME280;11853;48.080;11.960;2022-08-20T08:22:23;94911.00;;;18.89;100.00
23363;BME280;11853;48.080;11.960;2022-08-20T08:24:49;94905.63;;;18.89;100.00
23363;BME280;11853;48.080;11.960;2022-08-20T08:27:15;94908.31;;;18.89;100.00
23363;BME280;11853;48.080;11.960;2022-08-20T08:29:44;94908.94;;;18.91;100.00
23363;BME280;11853;48.080;11.960;2022-08-20T08:32:11;94914.53;;;18.89;100.00
23363;BME280;11853;48.080;11.960;2022-08-20T08:34:37;94914.75;;;18.95;100.00
23363;BME280;11853;48.080;11.960;2022-08-20T08:37:04;94915.56;;;18.95;100.00
23363;BME280;11853;48.080;11.960;2022-08-20T08:39:31;94912.88;;;18.95;100.00
23363;BME280;11853;48.080;11.960;2022-08-20T08:41:58;94920.94;;;18.95;100.00
23363;BME280;11853;48.080;11.960;2022-08-20T08:44:35;94923.00;;;18.93;100.00
23363;BME280;11853;48.080;11.960;2022-08-20T08:47:25;94935.81;;;18.91;100.00
23363;BME280;11853;48.080;11.960;2022-08-20T08:49:54;94934.56;;;18.87;100.00
23363;BME280;11853;48.080;11.960;2022-08-20T08:52:27;94932.06;;;18.85;100.00
23363;BME280;11853;48.080;11.960;2022-08-20T08:54:57;94933.34;;;18.89;100.00
23363;BME280;11853;48.080;11.960;2022-08-20T08:57:24;94933.53;;;18.88;100.00
23363;BME280;11853;48.080;11.960;2022-08-20T08:59:57;94930.03;;;18.87;100.00
23363;BME280;11853;48.080;11.960;2022-08-20T09:02:25;94931.47;;;18.90;100.00
23363;BME280;11853;48.080;11.960;2022-08-20T09:04:53;94942.03;;;18.92;100.00
23363;BME280;11853;48.080;11.960;2022-08-20T09:07:22;94940.19;;;18.92;100.00
23363;BME280;11853;48.080;11.960;2022-08-20T09:09:49;94937.91;;;18.96;100.00
23363;BME280;11853;48.080;11.960;2022-08-20T09:12:21;94937.09;;;19.02;100.00
23363;BME280;11853;48.080;11.960;2022-08-20T09:14:49;94935.44;;;19.01;100.00
23363;BME280;11853;48.080;11.960;2022-08-20T09:17:17;94936.47;;;19.00;100.00
23363;BME280;11853;48.080;11.960;2022-08-20T09:19:43;94940.00;;;19.00;100.00
23363;BME280;11853;48.080;11.960;2022-08-20T09:22:16;94941.25;;;19.04;100.00
23363;BME280;11853;48.080;11.960;2022-08-20T09:24:43;94941.66;;;19.08;100.00
23363;BME280;11853;48.080;11.960;2022-08-20T09:27:09;94943.13;;;19.10;100.00
23363;BME280;11853;48.080;11.960;2022-08-20T09:29:35;94941.69;;;19.15;100.00
23363;BME280;11853;48.080;11.960;2022-08-20T09:32:05;94947.69;;;19.17;100.00
23363;BME280;11853;48.080;11.960;2022-08-20T09:34:37;94947.50;;;19.18;100.00
23363;BME280;11853;48.080;11.960;2022-08-20T09:37:04;94942.94;;;19.19;100.00
23363;BME280;11853;48.080;11.960;2022-08-20T09:39:30;94945.00;;;19.17;100.00
23363;BME280;11853;48.080;11.960;2022-08-20T09:42:07;94942.28;;;19.17;100.00
23363;BME280;11853;48.080;11.960;2022-08-20T09:44:33;94944.16;;;19.16;100.00
23363;BME280;11853;48.080;11.960;2022-08-20T09:46:59;94944.56;;;19.13;100.00
23363;BME280;11853;48.080;11.960;2022-08-20T09:49:25;94940.84;;;19.14;100.00
23363;BME280;11853;48.080;11.960;2022-08-20T09:51:51;94953.47;;;19.13;100.00
23363;BME280;11853;48.080;11.960;2022-08-20T09:54:17;94950.78;;;19.13;100.00
23363;BME280;11853;48.080;11.960;2022-08-20T09:56:44;94954.50;;;19.12;100.00
23363;BME280;11853;48.080;11.960;2022-08-20T09:59:10;94951.59;;;19.14;100.00
23363;BME280;11853;48.080;11.960;2022-08-20T10:01:37;94947.69;;;19.17;100.00
23363;BME280;11853;48.080;11.960;2022-08-20T10:04:03;94962.16;;;19.16;100.00
23363;BME280;11853;48.080;11.960;2022-08-20T10:06:29;94952.88;;;19.18;100.00
23363;BME280;11853;48.080;11.960;2022-08-20T10:08:54;94955.56;;;19.18;100.00
23363;BME280;11853;48.080;11.960;2022-08-20T10:11:23;94952.66;;;19.20;100.00
23363;BME280;11853;48.080;11.960;2022-08-20T10:13:49;94955.78;;;19.23;100.00
23363;BME280;11853;48.080;11.960;2022-08-20T10:16:15;94958.25;;;19.25;100.00
23363;BME280;11853;48.080;11.960;2022-08-20T10:18:41;94960.75;;;19.26;100.00
23363;BME280;11853;48.080;11.960;2022-08-20T10:21:11;94955.97;;;19.28;100.00
23363;BME280;11853;48.080;11.960;2022-08-20T10:23:37;94957.25;;;19.32;100.00
23363;BME280;11853;48.080;11.960;2022-08-20T10:26:02;94950.41;;;19.36;100.00
23363;BME280;11853;48.080;11.960;2022-08-20T10:28:28;94954.56;;;19.39;100.00
23363;BME280;11853;48.080;11.960;2022-08-20T10:30:54;94951.66;;;19.41;100.00
23363;BME280;11853;48.080;11.960;2022-08-20T10:33:20;94957.47;;;19.44;100.00
23363;BME280;11853;48.080;11.960;2022-08-20T10:35:46;94956.41;;;19.45;100.00
23363;BME280;11853;48.080;11.960;2022-08-20T10:38:11;94961.63;;;19.47;100.00
23363;BME280;11853;48.080;11.960;2022-08-20T10:40:37;94956.22;;;19.47;100.00
23363;BME280;11853;48.080;11.960;2022-08-20T10:43:03;94963.06;;;19.49;100.00
23363;BME280;11853;48.080;11.960;2022-08-20T10:45:29;94964.50;;;19.45;100.00
23363;BME280;11853;48.080;11.960;2022-08-20T10:47:58;94959.94;;;19.46;100.00
23363;BME280;11853;48.080;11.960;2022-08-20T10:50:24;94960.97;;;19.45;100.00
23363;BME280;11853;48.080;11.960;2022-08-20T10:52:50;94960.16;;;19.44;100.00
23363;BME280;11853;48.080;11.960;2022-08-20T10:55:16;94958.28;;;19.45;100.00
23363;BME280;11853;48.080;11.960;2022-08-20T10:57:42;94966.19;;;19.46;100.00
23363;BME280;11853;48.080;11.960;2022-08-20T11:00:11;94962.44;;;19.47;100.00
23363;BME280;11853;48.080;11.960;2022-08-20T11:02:37;94958.69;;;19.48;100.00
23363;BME280;11853;48.080;11.960;2022-08-20T11:05:04;94955.00;;;19.49;100.00
23363;BME280;11853;48.080;11.960;2022-08-20T11:07:33;94960.38;;;19.49;100.00
23363;BME280;11853;48.080;11.960;2022-08-20T11:09:59;94963.06;;;19.49;100.00
23363;BME280;11853;48.080;11.960;2022-08-20T11:12:25;94963.06;;;19.49;100.00
23363;BME280;11853;48.080;11.960;2022-08-20T11:14:52;94963.06;;;19.49;100.00
23363;BME280;11853;48.080;11.960;2022-08-20T11:17:21;94968.63;;;19.48;100.00
23363;BME280;11853;48.080;11.960;2022-08-20T11:19:47;94962.63;;;19.46;100.00
23363;BME280;11853;48.080;11.960;2022-08-20T11:22:13;94950.22;;;19.45;100.00
23363;BME280;11853;48.080;11.960;2022-08-20T11:24:39;94953.72;;;19.45;100.00
23363;BME280;11853;48.080;11.960;2022-08-20T11:27:05;94942.56;;;19.42;100.00
23363;BME280;11853;48.080;11.960;2022-08-20T11:29:33;94941.31;;;19.44;100.00
23363;BME280;11853;48.080;11.960;2022-08-20T11:31:59;94937.16;;;19.48;100.00
23363;BME280;11853;48.080;11.960;2022-08-20T11:34:25;94938.03;;;19.55;100.00
23363;BME280;11853;48.080;11.960;2022-08-20T11:36:51;94932.81;;;19.54;100.00
23363;BME280;11853;48.080;11.960;2022-08-20T11:39:18;94933.88;;;19.53;100.00
23363;BME280;11853;48.080;11.960;2022-08-20T11:41:44;94935.53;;;19.54;100.00
23363;BME280;11853;48.080;11.960;2022-08-20T11:44:10;94938.03;;;19.55;100.00
23363;BME280;11853;48.080;11.960;2022-08-20T11:46:36;94947.97;;;19.62;100.00
23363;BME280;11853;48.080;11.960;2022-08-20T11:49:02;94945.72;;;19.65;100.00
23363;BME280;11853;48.080;11.960;2022-08-20T11:51:28;94942.00;;;19.73;100.00
23363;BME280;11853;48.080;11.960;2022-08-20T11:53:54;94940.94;;;19.74;100.00
23363;BME280;11853;48.080;11.960;2022-08-20T11:56:20;94944.91;;;19.78;100.00
23363;BME280;11853;48.080;11.960;2022-08-20T11:58:45;94947.16;;;19.81;100.00
23363;BME280;11853;48.080;11.960;2022-08-20T12:01:12;94945.09;;;19.83;100.00
23363;BME280;11853;48.080;11.960;2022-08-20T12:03:38;94944.88;;;19.85;100.00
23363;BME280;11853;48.080;11.960;2022-08-20T12:06:04;94950.50;;;19.83;100.00
23363;BME280;11853;48.080;11.960;2022-08-20T12:08:30;94945.09;;;19.83;100.00
23363;BME280;11853;48.080;11.960;2022-08-20T12:10:57;94938.69;;;19.84;100.00
23363;BME280;11853;48.080;11.960;2022-08-20T12:13:28;94946.34;;;19.87;100.00
23363;BME280;11853;48.080;11.960;2022-08-20T12:15:54;94949.44;;;19.91;100.00
23363;BME280;11853;48.080;11.960;2022-08-20T12:18:20;94948.63;;;19.90;100.00
23363;BME280;11853;48.080;11.960;2022-08-20T12:20:46;94948.84;;;19.89;100.00
23363;BME280;11853;48.080;11.960;2022-08-20T12:23:12;94952.53;;;19.88;100.00
23363;BME280;11853;48.080;11.960;2022-08-20T12:25:38;94944.69;;;19.86;100.00
23363;BME280;11853;48.080;11.960;2022-08-20T12:28:04;94949.66;;;19.89;100.00
23363;BME280;11853;48.080;11.960;2022-08-20T12:30:31;94947.38;;;19.86;100.00
23363;BME280;11853;48.080;11.960;2022-08-20T12:32:57;94944.47;;;19.88;100.00
23363;BME280;11853;48.080;11.960;2022-08-20T12:35:24;94947.78;;;19.90;100.00
23363;BME280;11853;48.080;11.960;2022-08-20T12:37:51;94948.22;;;19.87;100.00
23363;BME280;11853;48.080;11.960;2022-08-20T12:40:24;94951.72;;;19.87;100.00
23363;BME280;11853;48.080;11.960;2022-08-20T12:42:50;94945.09;;;19.90;100.00
23363;BME280;11853;48.080;11.960;2022-08-20T12:45:17;94947.38;;;19.93;100.00
23363;BME280;11853;48.080;11.960;2022-08-20T12:47:44;94941.34;;;19.91;100.00
23363;BME280;11853;48.080;11.960;2022-08-20T12:50:21;94945.28;;;19.88;100.00